Mecca, Indiana
Current Conditions -  °F | °C
As of 5:55 PM on Monday 24 Nov 2014 (Local Time) from KPRG Reporting Station
Overcast Overcast  
Wind Chill: 27°   Ceiling: 4100
Heat Index: 36°   Visibility: 10mi
Dew Point: 31°   Wind: 13mph
Humidity: 84%   Direction: 250°WSW
Pressure: 29.8"   Gusts: 18mph
Location:  39.73°N, 87.33°W
Report Text: KPRG 242255Z AUTO 25011G16KT 10SM SCT033 OVC041 02/00 A2980 RMK AO2 T00211003
Loading
Personal Weather Stations






























Interactive Weather Map New forecast layout! Learn more

10-Day Weather Forecast

Advertisements
Track Severe Weather on mobile